Time;durP1;ratioP1;P1;durP2;ratioP2;P2;SDS_P1;SDS_P2;PMS_P1;PMS_P2;Temp;Humidity;BMP_temperature;BMP_pressure;BME280_temperature;BME280_humidity;BME280_pressure;Samples;Min_cycle;Max_cycle;Signal;HPM_P1;HPM_P2
2023/02/10 00:01:25;;;;;;;373.73;155.32;;;64.50;2201.60;;;;;;5050660;28;20501;-62
2023/02/10 00:03:51;;;;;;;106.28;47.08;;;64.60;2201.60;;;;;;5050418;28;20040;-63
2023/02/10 00:06:18;;;;;;;79.47;36.80;;;64.50;2201.60;;;;;;5050061;28;20033;-62
2023/02/10 00:08:49;;;;;;;67.82;32.92;;;64.40;2201.60;;;;;;5050170;28;20056;-62
2023/02/10 00:11:18;;;;;;;72.80;38.85;;;64.50;2201.60;;;;;;5049957;28;20070;-62
2023/02/10 00:13:44;;;;;;;60.83;32.53;;;64.50;2201.60;;;;;;5050372;28;20086;-62
2023/02/10 00:16:15;;;;;;;134.45;62.70;;;64.70;2201.60;;;;;;5050253;28;20542;-66
2023/02/10 00:18:41;;;;;;;91.30;44.10;;;64.70;2201.60;;;;;;5050144;28;20398;-63
2023/02/10 00:21:13;;;;;;;79.78;36.90;;;64.70;2201.60;;;;;;5050002;28;20021;-66
2023/02/10 00:23:38;;;;;;;51.95;28.27;;;64.70;2201.60;;;;;;5049960;28;20028;-61
2023/02/10 00:26:06;;;;;;;109.80;48.85;;;64.90;2201.60;;;;;;5064883;28;20024;-64
2023/02/10 00:28:33;;;;;;;64.97;32.47;;;64.90;2201.60;;;;;;5070269;28;20036;-64
2023/02/10 00:30:59;;;;;;;55.53;28.98;;;64.80;2201.60;;;;;;5069616;28;20074;-61
2023/02/10 00:33:24;;;;;;;52.92;27.73;;;64.80;2201.60;;;;;;5069484;28;20020;-62
2023/02/10 00:35:50;;;;;;;50.70;26.83;;;64.80;2201.60;;;;;;5069685;28;20086;-62
2023/02/10 00:38:16;;;;;;;87.25;39.35;;;64.90;2201.60;;;;;;5068884;28;20475;-61
2023/02/10 00:40:41;;;;;;;140.80;61.05;;;64.90;2201.60;;;;;;5069478;28;20016;-63
2023/02/10 00:43:07;;;;;;;148.25;67.95;;;64.90;2201.60;;;;;;5069589;28;20029;-61
2023/02/10 00:45:33;;;;;;;115.60;55.75;;;64.90;2201.60;;;;;;5070379;28;20024;-61
2023/02/10 00:47:58;;;;;;;71.18;34.97;;;89.80;2176.00;;;;;;5070057;28;20037;-61
2023/02/10 00:50:24;;;;;;;72.78;37.53;;;89.90;2176.00;;;;;;5069457;28;20031;-62
2023/02/10 00:52:50;;;;;;;106.43;51.45;;;89.80;2176.00;;;;;;5050187;28;20045;-62
2023/02/10 00:55:15;;;;;;;150.38;68.45;;;89.90;2176.00;;;;;;5050316;28;20032;-62
2023/02/10 00:57:41;;;;;;;408.83;174.95;;;89.70;2176.00;;;;;;5050435;28;20080;-63
2023/02/10 01:00:07;;;;;;;187.63;80.88;;;89.70;2176.00;;;;;;5050105;28;20031;-61
2023/02/10 01:02:33;;;;;;;376.85;187.70;;;89.80;2176.00;;;;;;5050363;28;20029;-61
2023/02/10 01:05:00;;;;;;;662.47;343.23;;;89.90;2176.00;;;;;;5049939;28;20127;-61
2023/02/10 01:07:25;;;;;;;106.90;46.20;;;89.90;2176.00;;;;;;5050040;28;20040;-62
2023/02/10 01:09:51;;;;;;;54.40;28.48;;;89.90;2176.00;;;;;;5050220;28;20379;-62
2023/02/10 01:12:17;;;;;;;71.78;34.50;;;90.00;2176.00;;;;;;5049958;28;20463;-61
2023/02/10 01:14:42;;;;;;;333.98;140.50;;;90.00;2176.00;;;;;;5050016;28;20095;-65
2023/02/10 01:17:08;;;;;;;137.15;52.13;;;90.00;2176.00;;;;;;5049746;28;20025;-64
2023/02/10 01:19:33;;;;;;;49.00;22.73;;;89.90;2176.00;;;;;;5050220;28;20029;-62
2023/02/10 01:21:59;;;;;;;136.77;62.65;;;90.00;2176.00;;;;;;5049729;28;20056;-62
2023/02/10 01:24:25;;;;;;;386.35;155.20;;;90.00;2176.00;;;;;;5049616;28;20029;-62
2023/02/10 01:26:51;;;;;;;189.70;76.93;;;89.90;2176.00;;;;;;5049828;28;20112;-62
2023/02/10 01:29:16;;;;;;;243.10;97.22;;;89.80;2176.00;;;;;;5049871;28;20033;-62
2023/02/10 01:31:42;;;;;;;423.17;164.30;;;89.70;2176.00;;;;;;5049898;28;20437;-62
2023/02/10 01:34:07;;;;;;;966.97;438.40;;;89.90;2176.00;;;;;;5049674;28;20021;-62
2023/02/10 01:36:33;;;;;;;773.05;350.58;;;89.90;2176.00;;;;;;5049901;28;20083;-65
2023/02/10 01:38:59;;;;;;;416.65;167.00;;;89.90;2176.00;;;;;;5049656;28;20498;-62
2023/02/10 01:41:25;;;;;;;123.85;53.20;;;89.90;2176.00;;;;;;5049675;28;20565;-62
2023/02/10 01:43:53;;;;;;;195.88;82.60;;;89.90;2176.00;;;;;;5049880;28;20114;-62
2023/02/10 01:46:19;;;;;;;130.93;55.88;;;89.70;2176.00;;;;;;5049756;28;20029;-62
2023/02/10 01:48:45;;;;;;;135.48;60.20;;;89.80;2176.00;;;;;;5049394;28;20029;-62
2023/02/10 01:51:12;;;;;;;49.05;24.05;;;89.70;2176.00;;;;;;5052626;28;20049;-63
2023/02/10 01:53:39;;;;;;;55.05;26.85;;;89.90;2176.00;;;;;;5052949;28;20395;-62
2023/02/10 01:56:05;;;;;;;177.00;76.43;;;90.00;2176.00;;;;;;5033625;28;20484;-62
2023/02/10 01:58:33;;;;;;;348.08;134.15;;;90.20;2176.00;;;;;;5033546;28;20072;-62
2023/02/10 02:00:59;;;;;;;123.15;50.58;;;90.10;2176.00;;;;;;5032923;28;20034;-62
2023/02/10 02:03:26;;;;;;;116.28;55.05;;;89.90;2176.00;;;;;;5033083;28;20073;-62
2023/02/10 02:05:52;;;;;;;94.22;47.17;;;90.00;2176.00;;;;;;5032947;28;20564;-62
2023/02/10 02:08:29;;;;;;;65.05;32.60;;;90.20;2176.00;;;;;;5032785;28;20045;-61
2023/02/10 02:11:12;;;;;;;54.67;30.52;;;90.20;2176.00;;;;;;5032880;28;20071;-62
2023/02/10 02:14:08;;;;;;;50.13;25.67;;;90.40;2176.00;;;;;;5032758;28;20061;-61
2023/02/10 02:16:48;;;;;;;91.75;47.05;;;90.50;2176.00;;;;;;5032980;28;20431;-61
2023/02/10 02:19:22;;;;;;;115.20;55.22;;;115.50;2176.00;;;;;;5032808;28;20460;-61
2023/02/10 02:22:00;;;;;;;74.03;37.15;;;115.50;2176.00;;;;;;5032733;28;20187;-62
2023/02/10 02:24:38;;;;;;;191.35;85.75;;;115.90;2176.00;;;;;;5032565;28;20036;-62
2023/02/10 02:27:25;;;;;;;140.38;57.80;;;116.00;2176.00;;;;;;5033112;28;20371;-63
2023/02/10 02:30:28;;;;;;;82.18;37.20;;;115.60;2176.00;;;;;;5032964;28;20079;-62
2023/02/10 02:33:02;;;;;;;32.47;15.90;;;115.50;2176.00;;;;;;5032518;28;20025;-61
2023/02/10 02:35:35;;;;;;;21.35;12.70;;;115.40;2176.00;;;;;;5032433;28;20030;-62
2023/02/10 02:38:01;;;;;;;44.22;20.00;;;115.40;2176.00;;;;;;5032690;28;20109;-63
2023/02/10 02:40:27;;;;;;;95.70;49.45;;;115.20;2176.00;;;;;;5032367;28;20037;-62
2023/02/10 02:42:53;;;;;;;44.42;24.70;;;115.30;2176.00;;;;;;5032578;28;20022;-62
2023/02/10 02:45:34;;;;;;;31.00;15.73;;;115.20;2176.00;;;;;;5032269;28;20078;-62
2023/02/10 02:48:14;;;;;;;26.83;13.75;;;90.50;2176.00;;;;;;5032092;28;20065;-62
2023/02/10 02:51:09;;;;;;;33.88;17.60;;;90.50;2176.00;;;;;;5032111;28;20498;-62
2023/02/10 02:53:59;;;;;;;36.83;20.58;;;90.40;2176.00;;;;;;5031943;28;20029;-62
2023/02/10 02:56:56;;;;;;;39.63;18.27;;;90.40;2176.00;;;;;;5018118;28;20839;-62
2023/02/10 02:59:37;;;;;;;32.95;19.17;;;90.50;2176.00;;;;;;4951792;29;20552;-62
2023/02/10 03:02:11;;;;;;;40.33;21.50;;;90.50;2176.00;;;;;;4950775;28;20036;-62
2023/02/10 03:04:38;;;;;;;49.28;26.65;;;90.50;2176.00;;;;;;4951586;29;20513;-63
2023/02/10 03:07:04;;;;;;;69.13;31.27;;;90.50;2176.00;;;;;;4951854;29;20418;-62
2023/02/10 03:09:32;;;;;;;164.85;66.45;;;90.50;2176.00;;;;;;4951647;29;20142;-63
2023/02/10 03:11:58;;;;;;;46.25;22.58;;;115.40;2176.00;;;;;;4951578;29;20033;-62
2023/02/10 03:14:24;;;;;;;39.95;20.55;;;115.60;2176.00;;;;;;4951626;29;20126;-62
2023/02/10 03:16:50;;;;;;;151.77;59.72;;;115.70;2176.00;;;;;;4951659;28;20515;-62
2023/02/10 03:19:16;;;;;;;159.32;70.78;;;115.80;2176.00;;;;;;4951284;28;20035;-62
2023/02/10 03:21:42;;;;;;;59.00;27.02;;;115.90;2176.00;;;;;;4951497;29;20057;-62
2023/02/10 03:24:08;;;;;;;111.45;45.67;;;116.10;2176.00;;;;;;4951266;29;20054;-62
2023/02/10 03:26:35;;;;;;;33.55;18.02;;;140.80;2176.00;;;;;;4951497;28;20378;-63
2023/02/10 03:29:01;;;;;;;30.63;14.93;;;116.10;2176.00;;;;;;4951430;29;20047;-62
2023/02/10 03:31:27;;;;;;;25.48;14.63;;;140.80;2176.00;;;;;;4951095;29;20031;-62
2023/02/10 03:33:53;;;;;;;25.73;14.60;;;140.90;2176.00;;;;;;4951285;28;20074;-63
2023/02/10 03:36:19;;;;;;;32.95;15.93;;;140.90;2176.00;;;;;;5011189;28;20060;-64
2023/02/10 03:38:45;;;;;;;44.50;20.02;;;116.10;2176.00;;;;;;5031383;28;20026;-62
2023/02/10 03:41:11;;;;;;;24.13;13.50;;;115.90;2176.00;;;;;;5031651;28;20114;-63
2023/02/10 03:43:37;;;;;;;30.33;16.65;;;140.80;2176.00;;;;;;5030921;28;20163;-63
2023/02/10 03:46:03;;;;;;;37.05;18.08;;;140.90;2176.00;;;;;;5031150;28;20116;-63
2023/02/10 03:48:31;;;;;;;176.20;70.50;;;140.90;2176.00;;;;;;5031016;28;20141;-62
2023/02/10 03:51:02;;;;;;;119.60;52.65;;;116.10;2176.00;;;;;;5030845;28;20079;-61
2023/02/10 03:53:29;;;;;;;62.03;26.08;;;115.90;2176.00;;;;;;5030636;28;20476;-62
2023/02/10 03:55:54;;;;;;;65.20;25.63;;;116.00;2176.00;;;;;;5031228;28;20040;-62
2023/02/10 03:58:20;;;;;;;33.40;18.27;;;116.00;2176.00;;;;;;5031075;28;20375;-63
2023/02/10 04:00:46;;;;;;;55.80;22.88;;;116.00;2176.00;;;;;;5030646;28;20045;-62
2023/02/10 04:03:12;;;;;;;76.00;35.97;;;115.80;2176.00;;;;;;5030886;28;20033;-63
2023/02/10 04:05:37;;;;;;;54.03;24.23;;;115.90;2176.00;;;;;;5030759;28;20037;-62
2023/02/10 04:08:04;;;;;;;46.17;19.67;;;116.10;2176.00;;;;;;5030818;28;20041;-62
2023/02/10 04:10:29;;;;;;;25.48;13.20;;;116.00;2176.00;;;;;;5030638;28;20048;-62
2023/02/10 04:12:55;;;;;;;17.33;11.07;;;140.80;2176.00;;;;;;5030252;28;20488;-62
2023/02/10 04:15:21;;;;;;;32.08;14.75;;;140.90;2176.00;;;;;;5030793;28;20068;-62
2023/02/10 04:17:46;;;;;;;69.40;30.55;;;140.80;2176.00;;;;;;5030397;28;20109;-63
2023/02/10 04:20:14;;;;;;;32.28;16.73;;;141.00;2176.00;;;;;;5030862;28;20026;-62
2023/02/10 04:22:39;;;;;;;80.88;31.25;;;141.10;2176.00;;;;;;5030373;28;20041;-62
2023/02/10 04:25:06;;;;;;;159.75;62.65;;;140.90;2176.00;;;;;;5030457;28;20026;-63
2023/02/10 04:27:32;;;;;;;186.70;78.93;;;140.80;2176.00;;;;;;5030545;28;20064;-62
2023/02/10 04:29:57;;;;;;;102.93;45.50;;;116.00;2176.00;;;;;;5030655;28;20053;-62
2023/02/10 04:32:23;;;;;;;71.82;29.77;;;116.00;2176.00;;;;;;5030538;28;20356;-62
2023/02/10 04:34:49;;;;;;;32.60;13.20;;;140.80;2176.00;;;;;;5030427;28;20022;-62
2023/02/10 04:37:15;;;;;;;27.45;12.63;;;141.00;2176.00;;;;;;5030593;28;20104;-62
2023/02/10 04:39:41;;;;;;;22.50;12.17;;;141.10;2176.00;;;;;;5030465;28;20475;-62
2023/02/10 04:42:07;;;;;;;25.17;15.13;;;140.90;2176.00;;;;;;5030363;28;20029;-62
2023/02/10 04:44:33;;;;;;;29.50;16.20;;;140.80;2176.00;;;;;;5030504;28;20037;-61
2023/02/10 04:46:58;;;;;;;28.80;14.45;;;140.90;2176.00;;;;;;5030345;28;20026;-62
2023/02/10 04:49:25;;;;;;;31.43;16.07;;;141.00;2176.00;;;;;;5030454;28;20483;-62
2023/02/10 04:51:50;;;;;;;233.88;95.05;;;141.00;2176.00;;;;;;5030144;28;20052;-62
2023/02/10 04:54:16;;;;;;;67.55;29.35;;;140.90;2176.00;;;;;;5030084;28;20038;-62
2023/02/10 04:56:42;;;;;;;23.07;14.03;;;140.80;2176.00;;;;;;5030117;28;20472;-62
2023/02/10 04:59:08;;;;;;;23.63;13.50;;;140.80;2176.00;;;;;;5030300;28;20032;-62
2023/02/10 05:01:34;;;;;;;61.15;29.00;;;140.90;2176.00;;;;;;5030348;28;20040;-62
2023/02/10 05:04:00;;;;;;;54.07;25.70;;;140.80;2176.00;;;;;;5030030;28;20029;-62
2023/02/10 05:06:26;;;;;;;33.58;18.40;;;140.80;2176.00;;;;;;5030146;28;20084;-62
2023/02/10 05:08:51;;;;;;;72.75;30.45;;;140.80;2176.00;;;;;;5030206;28;20107;-62
2023/02/10 05:11:18;;;;;;;32.97;18.03;;;116.10;2176.00;;;;;;5029926;28;20030;-63
2023/02/10 05:13:44;;;;;;;28.92;16.23;;;116.10;2176.00;;;;;;5030335;28;20033;-62
2023/02/10 05:16:11;;;;;;;34.87;15.83;;;116.10;2176.00;;;;;;5030081;28;20083;-62
2023/02/10 05:18:39;;;;;;;24.97;13.67;;;140.80;2176.00;;;;;;5029806;28;20072;-62
2023/02/10 05:21:05;;;;;;;33.67;14.95;;;141.00;2176.00;;;;;;5030053;28;20083;-62
2023/02/10 05:23:30;;;;;;;32.38;14.63;;;141.20;2176.00;;;;;;5029977;28;20037;-62
2023/02/10 05:25:56;;;;;;;34.25;16.48;;;141.30;2176.00;;;;;;5032565;28;20121;-62
2023/02/10 05:28:22;;;;;;;50.08;24.35;;;141.30;2176.00;;;;;;5033585;28;20044;-62
2023/02/10 05:30:48;;;;;;;33.55;17.77;;;141.40;2176.00;;;;;;5033570;28;20032;-62
2023/02/10 05:33:14;;;;;;;60.45;27.33;;;141.40;2176.00;;;;;;5033764;28;20498;-62
2023/02/10 05:35:40;;;;;;;55.57;25.60;;;141.20;2176.00;;;;;;5033747;28;20109;-62
2023/02/10 05:38:06;;;;;;;69.43;34.90;;;141.40;2176.00;;;;;;5033536;28;20071;-63
2023/02/10 05:40:32;;;;;;;46.83;25.03;;;141.30;2176.00;;;;;;5033436;28;20529;-62
2023/02/10 05:42:58;;;;;;;36.73;19.50;;;141.30;2176.00;;;;;;5033749;28;20040;-62
2023/02/10 05:45:24;;;;;;;64.97;32.07;;;141.20;2176.00;;;;;;5033485;28;20025;-61
2023/02/10 05:47:51;;;;;;;91.27;40.10;;;141.10;2176.00;;;;;;5033408;28;20037;-62
2023/02/10 05:50:17;;;;;;;111.03;47.03;;;141.10;2176.00;;;;;;5033403;28;20029;-63
2023/02/10 05:52:43;;;;;;;206.68;90.72;;;141.00;2176.00;;;;;;5033361;28;20060;-61
2023/02/10 05:55:09;;;;;;;435.23;188.07;;;140.90;2176.00;;;;;;5033316;28;20029;-62
2023/02/10 05:57:35;;;;;;;392.50;203.77;;;140.80;2176.00;;;;;;5033165;28;20073;-62
2023/02/10 06:00:05;;;;;;;131.15;62.28;;;116.00;2176.00;;;;;;5033357;28;20060;-62
2023/02/10 06:02:31;;;;;;;108.00;49.70;;;115.80;2176.00;;;;;;5033449;28;20060;-63
2023/02/10 06:04:57;;;;;;;65.43;27.70;;;115.90;2176.00;;;;;;5033124;28;20449;-62
2023/02/10 06:07:23;;;;;;;58.72;28.52;;;116.00;2176.00;;;;;;5033139;28;20044;-63
2023/02/10 06:09:48;;;;;;;40.55;17.52;;;116.00;2176.00;;;;;;5033012;28;20100;-63
2023/02/10 06:12:14;;;;;;;34.97;17.00;;;116.00;2176.00;;;;;;5033178;28;20038;-62
2023/02/10 06:14:40;;;;;;;33.47;18.00;;;115.60;2176.00;;;;;;5032917;28;20064;-62
2023/02/10 06:17:08;;;;;;;42.90;20.00;;;116.10;2176.00;;;;;;5032770;28;20080;-63
2023/02/10 06:19:36;;;;;;;39.53;18.08;;;115.70;2176.00;;;;;;5032829;28;20467;-64
2023/02/10 06:22:02;;;;;;;46.33;19.13;;;115.50;2176.00;;;;;;5032701;28;20104;-64
2023/02/10 06:24:28;;;;;;;33.15;19.08;;;115.60;2176.00;;;;;;5032660;28;20022;-62
2023/02/10 06:26:53;;;;;;;39.53;21.60;;;115.70;2176.00;;;;;;5032621;28;20041;-62
2023/02/10 06:29:19;;;;;;;38.77;19.40;;;115.60;2176.00;;;;;;5032609;28;20037;-63
2023/02/10 06:31:45;;;;;;;101.93;49.93;;;115.60;2176.00;;;;;;5032744;28;20186;-62
2023/02/10 06:34:11;;;;;;;115.60;61.77;;;115.50;2176.00;;;;;;5032749;28;20417;-61
2023/02/10 06:36:37;;;;;;;81.97;42.83;;;115.40;2176.00;;;;;;5032010;28;20032;-62
2023/02/10 06:39:03;;;;;;;82.37;45.07;;;115.30;2176.00;;;;;;5032474;28;20026;-62
2023/02/10 06:41:29;;;;;;;72.22;41.33;;;115.30;2176.00;;;;;;5032332;28;20112;-62
2023/02/10 06:43:54;;;;;;;53.28;30.67;;;90.40;2176.00;;;;;;5032575;28;20029;-64
2023/02/10 06:46:20;;;;;;;75.70;37.03;;;90.40;2176.00;;;;;;5032377;28;20059;-63
2023/02/10 06:48:46;;;;;;;66.15;34.72;;;90.30;2176.00;;;;;;5032089;28;20046;-62
2023/02/10 06:51:12;;;;;;;68.40;34.00;;;90.00;2176.00;;;;;;5032219;28;20389;-62
2023/02/10 06:53:37;;;;;;;51.40;27.42;;;89.90;2176.00;;;;;;5031944;28;20029;-62
2023/02/10 06:56:03;;;;;;;46.20;23.50;;;89.80;2176.00;;;;;;5032250;28;20030;-62
2023/02/10 06:58:29;;;;;;;45.73;24.60;;;89.90;2176.00;;;;;;5014547;28;20452;-62
2023/02/10 07:00:55;;;;;;;48.72;26.73;;;89.90;2176.00;;;;;;5032115;28;20065;-62
2023/02/10 07:03:21;;;;;;;37.28;19.10;;;89.70;2176.00;;;;;;5032077;28;20464;-62
2023/02/10 07:05:47;;;;;;;38.53;23.55;;;89.70;2176.00;;;;;;5032024;28;20522;-63
2023/02/10 07:08:13;;;;;;;41.33;21.92;;;89.60;2201.60;;;;;;5031857;28;20061;-62
2023/02/10 07:10:38;;;;;;;47.67;29.92;;;64.90;2201.60;;;;;;5031825;28;20029;-62
2023/02/10 07:13:04;;;;;;;34.92;19.00;;;64.70;2201.60;;;;;;5031846;28;20106;-62
2023/02/10 07:15:31;;;;;;;35.78;19.23;;;64.90;2201.60;;;;;;5031869;28;20029;-62
2023/02/10 07:17:56;;;;;;;36.70;18.27;;;64.80;2201.60;;;;;;5031522;28;20029;-62
2023/02/10 07:20:22;;;;;;;34.67;18.80;;;64.50;2201.60;;;;;;5031597;28;20037;-62
2023/02/10 07:22:48;;;;;;;34.28;17.17;;;64.50;2201.60;;;;;;5031377;28;20112;-63
2023/02/10 07:25:14;;;;;;;37.35;18.48;;;64.60;2201.60;;;;;;5031786;28;20112;-62
2023/02/10 07:27:40;;;;;;;29.20;16.75;;;64.70;2201.60;;;;;;5031343;28;20496;-63
2023/02/10 07:30:06;;;;;;;28.50;16.17;;;64.80;2201.60;;;;;;5031373;28;20032;-62
2023/02/10 07:32:32;;;;;;;32.50;17.45;;;64.80;2201.60;;;;;;5031644;28;20025;-64
2023/02/10 07:34:57;;;;;;;31.35;19.08;;;64.70;2201.60;;;;;;5031329;28;20372;-62
2023/02/10 07:37:23;;;;;;;36.22;20.40;;;64.50;2201.60;;;;;;5031476;28;20029;-62
2023/02/10 07:39:49;;;;;;;34.80;20.30;;;64.40;2201.60;;;;;;5031335;28;20018;-62
2023/02/10 07:42:15;;;;;;;40.33;22.02;;;64.30;2201.60;;;;;;5031449;28;21043;-63
2023/02/10 07:44:41;;;;;;;37.85;22.75;;;64.30;2201.60;;;;;;5031700;28;20040;-63
2023/02/10 07:47:06;;;;;;;43.00;21.98;;;64.10;2201.60;;;;;;5027745;28;20025;-63
2023/02/10 07:49:32;;;;;;;44.00;22.90;;;64.00;2201.60;;;;;;5028893;28;20029;-61
2023/02/10 07:51:58;;;;;;;115.47;67.25;;;39.00;2201.60;;;;;;5028591;28;20107;-61
2023/02/10 07:54:23;;;;;;;68.53;40.05;;;13.20;2201.60;;;;;;5029064;28;20044;-60
2023/02/10 07:56:49;;;;;;;98.78;63.53;;;51.40;2227.20;;;;;;5028822;28;20025;-60
2023/02/10 07:59:15;;;;;;;124.57;76.40;;;77.30;2227.20;;;;;;5028278;28;20060;-61
2023/02/10 08:01:42;;;;;;;124.63;80.53;;;77.50;2201.60;;;;;;5029030;28;20372;-60
2023/02/10 08:04:12;;;;;;;135.30;84.55;;;77.70;2150.40;;;;;;5028792;28;20217;-59
2023/02/10 08:06:38;;;;;;;130.35;77.47;;;102.80;2124.80;;;;;;5028633;28;20369;-62
2023/02/10 08:09:04;;;;;;;125.18;83.07;;;102.70;2124.80;;;;;;5028785;28;20037;-61
2023/02/10 08:11:30;;;;;;;129.45;89.35;;;102.80;2099.20;;;;;;5028656;28;20065;-61
2023/02/10 08:13:55;;;;;;;108.20;75.05;;;128.10;2048.00;;;;;;5028307;28;20791;-62
2023/02/10 08:16:21;;;;;;;96.82;65.20;;;153.60;1996.80;;;;;;5028597;28;20029;-62
2023/02/10 08:18:47;;;;;;;116.10;80.22;;;204.90;1843.20;;;;;;5028278;28;20040;-61
2023/02/10 08:21:12;;;;;;;99.40;73.60;;;205.10;1766.40;;;;;;5028519;28;20029;-60
2023/02/10 08:23:38;;;;;;;107.22;73.93;;;256.30;1664.00;;;;;;5028296;28;20407;-62
2023/02/10 08:26:10;;;;;;;65.93;48.35;;;282.00;1561.60;;;;;;5027944;28;20032;-61
2023/02/10 08:28:36;;;;;;;52.58;38.38;;;307.80;1510.40;;;;;;5028170;28;20100;-61
2023/02/10 08:31:04;;;;;;;32.97;26.90;;;332.90;1484.80;;;;;;5028679;28;20052;-61
2023/02/10 08:33:30;;;;;;;29.25;24.23;;;333.20;1433.60;;;;;;5028193;28;20395;-61
2023/02/10 08:35:56;;;;;;;35.38;29.58;;;358.40;1408.00;;;;;;5028249;28;20029;-61
2023/02/10 08:38:23;;;;;;;42.97;30.92;;;333.70;1382.40;;;;;;5033082;28;20017;-60
2023/02/10 08:40:56;;;;;;;46.33;36.50;;;358.50;1382.40;;;;;;5048091;28;20048;-62
2023/02/10 08:43:22;;;;;;;45.97;36.83;;;359.00;1331.20;;;;;;5048107;28;20017;-61
2023/02/10 08:45:48;;;;;;;37.33;31.90;;;384.50;1331.20;;;;;;5048003;28;20055;-62
2023/02/10 08:48:14;;;;;;;39.35;32.17;;;384.70;1305.60;;;;;;5048282;28;20045;-61
2023/02/10 08:50:39;;;;;;;46.47;40.50;;;410.00;1280.00;;;;;;5047730;28;20392;-62
2023/02/10 08:53:05;;;;;;;38.38;34.20;;;410.10;1254.40;;;;;;5047466;28;20540;-61
2023/02/10 08:55:31;;;;;;;41.08;34.08;;;410.20;1228.80;;;;;;5048012;28;20437;-60
2023/02/10 08:57:56;;;;;;;33.45;29.95;;;410.50;1254.40;;;;;;5047749;28;20436;-63
2023/02/10 09:00:23;;;;;;;43.08;34.05;;;435.80;1203.20;;;;;;5051616;28;20462;-62
2023/02/10 09:02:49;;;;;;;44.72;36.13;;;384.70;1228.80;;;;;;5052100;28;20025;-62
2023/02/10 09:05:16;;;;;;;31.45;26.77;;;409.90;1280.00;;;;;;5051626;28;20487;-62
2023/02/10 09:07:42;;;;;;;32.10;27.55;;;435.80;1203.20;;;;;;5051787;28;20028;-63
2023/02/10 09:10:10;;;;;;;43.03;35.13;;;435.80;1203.20;;;;;;5051744;28;20405;-61
2023/02/10 09:12:36;;;;;;;36.30;29.73;;;410.30;1254.40;;;;;;5051708;28;20036;-62
2023/02/10 09:15:02;;;;;;;40.40;33.45;;;460.80;1177.60;;;;;;5051651;28;20370;-62
2023/02/10 09:17:28;;;;;;;63.25;47.78;;;435.70;1203.20;;;;;;5050975;28;20029;-63
2023/02/10 09:19:54;;;;;;;74.28;61.65;;;435.50;1203.20;;;;;;5051693;28;20040;-63
2023/02/10 09:22:19;;;;;;;79.22;66.80;;;384.40;1254.40;;;;;;5051187;28;20103;-61
2023/02/10 09:24:47;;;;;;;90.43;74.13;;;358.70;1331.20;;;;;;5050425;28;20035;-61
2023/02/10 09:27:15;;;;;;;85.72;69.18;;;358.50;1305.60;;;;;;5050681;28;20028;-61
2023/02/10 09:29:40;;;;;;;86.88;69.72;;;307.70;1382.40;;;;;;5051633;28;20033;-61
2023/02/10 09:32:06;;;;;;;95.68;78.90;;;358.50;1356.80;;;;;;5050930;28;20039;-61
2023/02/10 09:34:32;;;;;;;99.80;78.38;;;307.50;1408.00;;;;;;5051688;28;20025;-61
2023/02/10 09:37:00;;;;;;;89.28;73.80;;;308.00;1408.00;;;;;;5051320;28;20021;-63
2023/02/10 09:39:27;;;;;;;93.75;75.88;;;307.30;1433.60;;;;;;5051437;28;20027;-61
2023/02/10 09:42:34;;;;;;;101.55;73.63;;;256.80;1459.20;;;;;;5053452;28;20017;-61
2023/02/10 09:45:09;;;;;;;95.22;72.50;;;231.30;1510.40;;;;;;4991942;28;20104;-61
2023/02/10 09:47:47;;;;;;;98.20;71.75;;;230.50;1587.20;;;;;;4992050;28;20038;-61
2023/02/10 09:50:31;;;;;;;104.38;70.70;;;180.10;1664.00;;;;;;4991852;28;20034;-61
2023/02/10 09:53:27;;;;;;;104.53;70.57;;;179.30;1740.80;;;;;;5011195;28;20045;-60
2023/02/10 09:55:59;;;;;;;93.78;68.18;;;179.40;1766.40;;;;;;5011601;28;20038;-60
2023/02/10 09:58:32;;;;;;;98.40;68.68;;;154.30;1792.00;;;;;;5011490;28;20079;-60
2023/02/10 10:01:04;;;;;;;109.70;72.25;;;154.20;1817.60;;;;;;5011212;28;20065;-60
2023/02/10 10:03:52;;;;;;;144.73;93.72;;;154.10;1843.20;;;;;;5011028;28;20038;-62
2023/02/10 10:06:23;;;;;;;100.97;69.88;;;153.70;1868.80;;;;;;5011285;28;20153;-60
2023/02/10 10:09:09;;;;;;;89.43;57.22;;;128.00;1945.60;;;;;;5011020;28;20042;-60
2023/02/10 10:11:41;;;;;;;95.50;61.58;;;103.30;1971.20;;;;;;5010496;28;20511;-62
2023/02/10 10:14:29;;;;;;;89.00;60.95;;;128.30;1971.20;;;;;;5010681;28;20034;-59
2023/02/10 10:17:33;;;;;;;75.65;52.53;;;103.20;1971.20;;;;;;5009510;28;20040;-61
2023/02/10 10:20:11;;;;;;;78.88;51.97;;;128.00;2022.40;;;;;;5008460;28;20045;-62
2023/02/10 10:23:15;;;;;;;77.13;49.25;;;103.20;1996.80;;;;;;5032027;28;20037;-60
2023/02/10 10:25:49;;;;;;;62.55;43.65;;;103.30;1996.80;;;;;;5040684;28;20045;-61
2023/02/10 10:28:17;;;;;;;91.13;55.05;;;128.10;2022.40;;;;;;5040113;28;20028;-63
2023/02/10 10:30:50;;;;;;;86.95;54.83;;;128.30;2022.40;;;;;;5040927;28;20030;-60
2023/02/10 10:33:47;;;;;;;84.82;52.95;;;128.10;2022.40;;;;;;5040123;28;20025;-62
2023/02/10 10:36:16;;;;;;;76.60;50.10;;;103.30;1996.80;;;;;;5050317;28;20025;-59
2023/02/10 10:38:56;;;;;;;87.72;56.15;;;103.10;2048.00;;;;;;5046128;28;20497;-58
2023/02/10 10:41:28;;;;;;;109.57;64.03;;;103.30;2022.40;;;;;;5048914;28;20021;-61
2023/02/10 10:43:56;;;;;;;80.63;52.60;;;103.00;2073.60;;;;;;5049454;28;20040;-59
2023/02/10 10:46:30;;;;;;;86.43;52.13;;;103.00;2073.60;;;;;;5048804;28;20690;-59
2023/02/10 10:48:56;;;;;;;73.05;46.97;;;102.90;2073.60;;;;;;5048713;28;20511;-60
2023/02/10 10:51:23;;;;;;;98.90;59.53;;;103.10;2048.00;;;;;;5048556;28;20048;-60
2023/02/10 10:53:56;;;;;;;98.45;60.47;;;103.20;2048.00;;;;;;5048515;28;20032;-59
2023/02/10 10:56:33;;;;;;;76.45;52.03;;;128.20;2048.00;;;;;;5046605;28;20020;-58
2023/02/10 10:59:03;;;;;;;68.25;46.78;;;103.30;2022.40;;;;;;5045522;28;20025;-59
2023/02/10 11:01:38;;;;;;;75.90;48.63;;;128.20;2022.40;;;;;;5048645;28;20045;-60
2023/02/10 11:04:12;;;;;;;77.10;48.45;;;128.00;2048.00;;;;;;5046530;28;20025;-58
2023/02/10 11:06:41;;;;;;;69.82;46.47;;;128.10;2048.00;;;;;;5048570;28;20471;-59
2023/02/10 11:09:28;;;;;;;88.00;55.63;;;128.00;2073.60;;;;;;5048253;28;20025;-60
2023/02/10 11:12:15;;;;;;;77.13;45.47;;;128.30;2073.60;;;;;;5047323;28;20029;-61
2023/02/10 11:14:45;;;;;;;70.30;42.75;;;103.20;2048.00;;;;;;5046229;28;20021;-59
2023/02/10 11:17:39;;;;;;;69.95;46.20;;;103.10;2048.00;;;;;;5049671;28;20051;-59
2023/02/10 11:20:11;;;;;;;82.40;46.55;;;103.20;2073.60;;;;;;5047580;28;20033;-59
2023/02/10 11:22:37;;;;;;;77.00;48.33;;;103.00;2099.20;;;;;;5048339;28;20021;-59
2023/02/10 11:25:22;;;;;;;69.72;41.80;;;103.10;2073.60;;;;;;5048820;28;20112;-59
2023/02/10 11:27:55;;;;;;;74.97;47.95;;;103.30;2073.60;;;;;;5049265;28;20040;-59
2023/02/10 11:30:39;;;;;;;96.00;61.50;;;103.20;2073.60;;;;;;5049594;28;20056;-59
2023/02/10 11:33:17;;;;;;;87.03;49.78;;;103.10;2099.20;;;;;;5049305;28;20535;-59
2023/02/10 11:35:48;;;;;;;89.65;56.03;;;103.10;2099.20;;;;;;5049173;28;20115;-59
2023/02/10 11:38:21;;;;;;;92.63;52.83;;;103.00;2099.20;;;;;;5048963;28;20028;-60
2023/02/10 11:40:54;;;;;;;109.10;67.95;;;102.90;2124.80;;;;;;5049123;28;20754;-60
2023/02/10 11:43:43;;;;;;;89.95;51.47;;;103.30;2124.80;;;;;;5128252;27;20304;-58
2023/02/10 11:46:38;;;;;;;82.97;48.78;;;103.10;2099.20;;;;;;5108502;28;20031;-58
2023/02/10 11:49:17;;;;;;;86.45;51.00;;;102.70;2150.40;;;;;;5006265;28;20118;-58
2023/02/10 11:51:53;;;;;;;75.45;46.05;;;102.70;2150.40;;;;;;5006212;28;20073;-57
2023/02/10 11:54:19;;;;;;;87.15;53.83;;;102.80;2150.40;;;;;;5005912;28;20132;-59
2023/02/10 12:00:20;;;;;;;83.85;50.50;;;102.50;2176.00;;;;;;5005896;28;20479;-58
2023/02/10 12:03:12;;;;;;;222.38;121.43;;;102.50;2176.00;;;;;;5005404;28;20113;-58
2023/02/10 12:06:05;;;;;;;90.63;53.70;;;102.80;2150.40;;;;;;4993380;28;20039;-58
2023/02/10 12:08:59;;;;;;;76.10;48.63;;;102.90;2150.40;;;;;;4986345;28;20034;-58
2023/02/10 12:11:39;;;;;;;82.90;48.42;;;102.80;2176.00;;;;;;4986143;28;20121;-58
2023/02/10 12:14:59;;;;;;;132.25;70.35;;;102.80;2150.40;;;;;;4986190;28;20113;-58